sensor_id;sensor_type;location;lat;lon;timestamp;P1;durP1;ratioP1;P2;durP2;ratioP2
43118;SDS011;28729;49.838;8.650;2022-09-21T00:02:24;10.88;;;3.72;;
43118;SDS011;28729;49.838;8.650;2022-09-21T00:06:27;6.97;;;3.80;;
43118;SDS011;28729;49.838;8.650;2022-09-21T00:10:31;6.72;;;3.33;;
43118;SDS011;28729;49.838;8.650;2022-09-21T00:14:32;4.97;;;2.83;;
43118;SDS011;28729;49.838;8.650;2022-09-21T00:18:35;6.22;;;3.33;;
43118;SDS011;28729;49.838;8.650;2022-09-21T00:22:36;11.07;;;3.67;;
43118;SDS011;28729;49.838;8.650;2022-09-21T00:26:38;7.30;;;3.05;;
43118;SDS011;28729;49.838;8.650;2022-09-21T00:30:40;9.75;;;3.47;;
43118;SDS011;28729;49.838;8.650;2022-09-21T00:34:42;7.93;;;2.85;;
43118;SDS011;28729;49.838;8.650;2022-09-21T00:38:44;10.18;;;4.15;;
43118;SDS011;28729;49.838;8.650;2022-09-21T00:42:49;6.15;;;3.30;;
43118;SDS011;28729;49.838;8.650;2022-09-21T00:46:51;10.43;;;3.53;;
43118;SDS011;28729;49.838;8.650;2022-09-21T00:50:56;7.53;;;2.78;;
43118;SDS011;28729;49.838;8.650;2022-09-21T00:55:10;11.40;;;3.97;;
43118;SDS011;28729;49.838;8.650;2022-09-21T00:59:16;9.80;;;3.38;;
43118;SDS011;28729;49.838;8.650;2022-09-21T01:03:22;7.32;;;3.13;;
43118;SDS011;28729;49.838;8.650;2022-09-21T01:07:25;7.63;;;3.70;;
43118;SDS011;28729;49.838;8.650;2022-09-21T01:11:39;8.65;;;3.75;;
43118;SDS011;28729;49.838;8.650;2022-09-21T01:37:47;7.97;;;3.42;;
43118;SDS011;28729;49.838;8.650;2022-09-21T01:41:54;9.70;;;3.25;;
43118;SDS011;28729;49.838;8.650;2022-09-21T01:45:59;5.10;;;3.95;;
43118;SDS011;28729;49.838;8.650;2022-09-21T01:50:05;10.18;;;3.85;;
43118;SDS011;28729;49.838;8.650;2022-09-21T01:54:10;12.98;;;3.92;;
43118;SDS011;28729;49.838;8.650;2022-09-21T02:02:35;7.13;;;4.13;;
43118;SDS011;28729;49.838;8.650;2022-09-21T02:06:42;10.43;;;3.95;;
43118;SDS011;28729;49.838;8.650;2022-09-21T02:10:47;10.52;;;3.70;;
43118;SDS011;28729;49.838;8.650;2022-09-21T02:14:51;12.38;;;4.75;;
43118;SDS011;28729;49.838;8.650;2022-09-21T02:19:20;7.35;;;4.18;;
43118;SDS011;28729;49.838;8.650;2022-09-21T02:23:41;11.60;;;6.35;;
43118;SDS011;28729;49.838;8.650;2022-09-21T02:27:59;11.23;;;4.57;;
43118;SDS011;28729;49.838;8.650;2022-09-21T02:37:04;10.20;;;4.47;;
43118;SDS011;28729;49.838;8.650;2022-09-21T02:41:25;7.38;;;4.07;;
43118;SDS011;28729;49.838;8.650;2022-09-21T02:45:32;12.55;;;4.70;;
43118;SDS011;28729;49.838;8.650;2022-09-21T02:49:43;9.75;;;4.45;;
43118;SDS011;28729;49.838;8.650;2022-09-21T02:53:48;8.27;;;4.22;;
43118;SDS011;28729;49.838;8.650;2022-09-21T02:57:53;11.13;;;4.55;;
43118;SDS011;28729;49.838;8.650;2022-09-21T03:01:56;9.07;;;4.50;;
43118;SDS011;28729;49.838;8.650;2022-09-21T03:05:58;12.30;;;4.82;;
43118;SDS011;28729;49.838;8.650;2022-09-21T03:10:00;8.95;;;5.25;;
43118;SDS011;28729;49.838;8.650;2022-09-21T03:14:02;12.77;;;5.78;;
43118;SDS011;28729;49.838;8.650;2022-09-21T03:18:08;13.43;;;5.85;;
43118;SDS011;28729;49.838;8.650;2022-09-21T03:22:13;13.43;;;5.03;;
43118;SDS011;28729;49.838;8.650;2022-09-21T03:26:14;10.40;;;5.55;;
43118;SDS011;28729;49.838;8.650;2022-09-21T03:30:16;12.50;;;5.57;;
43118;SDS011;28729;49.838;8.650;2022-09-21T03:34:17;15.80;;;5.78;;
43118;SDS011;28729;49.838;8.650;2022-09-21T03:38:19;10.57;;;5.05;;
43118;SDS011;28729;49.838;8.650;2022-09-21T03:42:21;13.75;;;5.90;;
43118;SDS011;28729;49.838;8.650;2022-09-21T03:46:23;12.63;;;6.13;;
43118;SDS011;28729;49.838;8.650;2022-09-21T03:50:25;11.80;;;6.13;;
43118;SDS011;28729;49.838;8.650;2022-09-21T03:54:28;13.75;;;6.30;;
43118;SDS011;28729;49.838;8.650;2022-09-21T03:58:30;13.32;;;6.15;;
43118;SDS011;28729;49.838;8.650;2022-09-21T04:02:34;13.90;;;6.47;;
43118;SDS011;28729;49.838;8.650;2022-09-21T04:06:37;14.25;;;6.68;;
43118;SDS011;28729;49.838;8.650;2022-09-21T04:10:39;15.52;;;6.50;;
43118;SDS011;28729;49.838;8.650;2022-09-21T04:14:43;19.92;;;5.97;;
43118;SDS011;28729;49.838;8.650;2022-09-21T04:18:44;13.60;;;5.20;;
43118;SDS011;28729;49.838;8.650;2022-09-21T04:22:50;17.45;;;6.05;;
43118;SDS011;28729;49.838;8.650;2022-09-21T04:26:53;12.18;;;6.20;;
43118;SDS011;28729;49.838;8.650;2022-09-21T04:30:54;13.52;;;5.32;;
43118;SDS011;28729;49.838;8.650;2022-09-21T04:34:56;18.50;;;5.72;;
43118;SDS011;28729;49.838;8.650;2022-09-21T04:39:01;10.65;;;5.78;;
43118;SDS011;28729;49.838;8.650;2022-09-21T04:43:02;10.80;;;6.13;;
43118;SDS011;28729;49.838;8.650;2022-09-21T04:47:04;11.40;;;5.35;;
43118;SDS011;28729;49.838;8.650;2022-09-21T04:51:06;15.38;;;5.47;;
43118;SDS011;28729;49.838;8.650;2022-09-21T04:55:09;10.18;;;5.20;;
43118;SDS011;28729;49.838;8.650;2022-09-21T04:59:10;13.88;;;5.07;;
43118;SDS011;28729;49.838;8.650;2022-09-21T05:03:12;11.20;;;5.10;;
43118;SDS011;28729;49.838;8.650;2022-09-21T05:07:13;14.60;;;5.22;;
43118;SDS011;28729;49.838;8.650;2022-09-21T05:11:16;9.57;;;4.50;;
43118;SDS011;28729;49.838;8.650;2022-09-21T05:15:19;8.85;;;4.43;;
43118;SDS011;28729;49.838;8.650;2022-09-21T05:19:22;12.35;;;4.82;;
43118;SDS011;28729;49.838;8.650;2022-09-21T05:23:24;11.55;;;4.70;;
43118;SDS011;28729;49.838;8.650;2022-09-21T05:27:26;11.38;;;5.03;;
43118;SDS011;28729;49.838;8.650;2022-09-21T05:40:29;11.13;;;4.90;;
43118;SDS011;28729;49.838;8.650;2022-09-21T05:44:32;12.13;;;4.67;;
43118;SDS011;28729;49.838;8.650;2022-09-21T05:48:39;14.30;;;4.93;;
43118;SDS011;28729;49.838;8.650;2022-09-21T05:52:55;11.23;;;4.82;;
43118;SDS011;28729;49.838;8.650;2022-09-21T05:57:19;10.10;;;3.63;;
43118;SDS011;28729;49.838;8.650;2022-09-21T06:06:06;9.95;;;5.28;;
43118;SDS011;28729;49.838;8.650;2022-09-21T06:10:09;11.75;;;6.05;;
43118;SDS011;28729;49.838;8.650;2022-09-21T06:14:13;12.13;;;6.25;;
43118;SDS011;28729;49.838;8.650;2022-09-21T06:18:15;13.52;;;5.95;;
43118;SDS011;28729;49.838;8.650;2022-09-21T06:22:18;9.65;;;5.32;;
43118;SDS011;28729;49.838;8.650;2022-09-21T06:26:20;12.45;;;5.90;;
43118;SDS011;28729;49.838;8.650;2022-09-21T06:30:21;11.75;;;5.82;;
43118;SDS011;28729;49.838;8.650;2022-09-21T06:34:23;10.57;;;5.07;;
43118;SDS011;28729;49.838;8.650;2022-09-21T06:38:25;14.27;;;5.95;;
43118;SDS011;28729;49.838;8.650;2022-09-21T06:42:28;9.57;;;5.32;;
43118;SDS011;28729;49.838;8.650;2022-09-21T06:46:30;11.25;;;5.35;;
43118;SDS011;28729;49.838;8.650;2022-09-21T06:50:31;12.85;;;5.43;;
43118;SDS011;28729;49.838;8.650;2022-09-21T06:54:33;9.93;;;4.68;;
43118;SDS011;28729;49.838;8.650;2022-09-21T06:58:35;12.02;;;4.93;;
43118;SDS011;28729;49.838;8.650;2022-09-21T07:02:41;11.60;;;5.55;;
43118;SDS011;28729;49.838;8.650;2022-09-21T07:06:43;17.52;;;6.13;;
43118;SDS011;28729;49.838;8.650;2022-09-21T07:10:45;12.55;;;4.97;;
43118;SDS011;28729;49.838;8.650;2022-09-21T07:14:47;11.65;;;5.30;;
43118;SDS011;28729;49.838;8.650;2022-09-21T07:18:48;11.82;;;5.63;;
43118;SDS011;28729;49.838;8.650;2022-09-21T07:22:50;10.40;;;5.13;;
43118;SDS011;28729;49.838;8.650;2022-09-21T07:26:52;9.93;;;4.75;;
43118;SDS011;28729;49.838;8.650;2022-09-21T07:30:53;10.88;;;4.55;;
43118;SDS011;28729;49.838;8.650;2022-09-21T07:34:56;9.37;;;5.00;;
43118;SDS011;28729;49.838;8.650;2022-09-21T07:38:58;7.85;;;4.25;;
43118;SDS011;28729;49.838;8.650;2022-09-21T07:42:59;6.53;;;3.75;;
43118;SDS011;28729;49.838;8.650;2022-09-21T07:47:05;5.47;;;3.33;;
43118;SDS011;28729;49.838;8.650;2022-09-21T07:51:08;6.60;;;3.25;;
43118;SDS011;28729;49.838;8.650;2022-09-21T07:55:12;7.75;;;1.92;;
43118;SDS011;28729;49.838;8.650;2022-09-21T07:59:14;4.87;;;1.87;;
43118;SDS011;28729;49.838;8.650;2022-09-21T08:03:15;5.05;;;1.70;;
43118;SDS011;28729;49.838;8.650;2022-09-21T08:07:17;4.72;;;1.45;;
43118;SDS011;28729;49.838;8.650;2022-09-21T08:11:21;3.25;;;1.60;;
43118;SDS011;28729;49.838;8.650;2022-09-21T08:15:23;4.93;;;1.42;;
43118;SDS011;28729;49.838;8.650;2022-09-21T08:19:45;3.85;;;1.60;;
43118;SDS011;28729;49.838;8.650;2022-09-21T08:23:47;4.75;;;1.27;;
43118;SDS011;28729;49.838;8.650;2022-09-21T08:31:51;3.05;;;1.25;;
43118;SDS011;28729;49.838;8.650;2022-09-21T08:35:54;4.72;;;1.60;;
43118;SDS011;28729;49.838;8.650;2022-09-21T08:39:57;3.72;;;1.30;;
43118;SDS011;28729;49.838;8.650;2022-09-21T08:44:03;1.95;;;1.17;;
43118;SDS011;28729;49.838;8.650;2022-09-21T08:48:13;5.93;;;1.38;;
43118;SDS011;28729;49.838;8.650;2022-09-21T08:52:27;3.22;;;1.30;;
43118;SDS011;28729;49.838;8.650;2022-09-21T08:56:31;1.90;;;1.00;;
43118;SDS011;28729;49.838;8.650;2022-09-21T09:05:32;3.15;;;1.10;;
43118;SDS011;28729;49.838;8.650;2022-09-21T09:09:46;3.95;;;0.90;;
43118;SDS011;28729;49.838;8.650;2022-09-21T09:14:11;5.65;;;1.55;;
43118;SDS011;28729;49.838;8.650;2022-09-21T09:18:41;3.38;;;1.15;;
43118;SDS011;28729;49.838;8.650;2022-09-21T09:23:05;3.13;;;1.08;;
43118;SDS011;28729;49.838;8.650;2022-09-21T09:31:22;2.80;;;0.90;;
43118;SDS011;28729;49.838;8.650;2022-09-21T09:35:32;4.03;;;1.27;;
43118;SDS011;28729;49.838;8.650;2022-09-21T09:39:48;3.42;;;1.00;;
43118;SDS011;28729;49.838;8.650;2022-09-21T09:44:02;5.43;;;1.30;;
43118;SDS011;28729;49.838;8.650;2022-09-21T09:52:25;3.73;;;1.20;;
43118;SDS011;28729;49.838;8.650;2022-09-21T09:56:27;2.35;;;1.10;;
43118;SDS011;28729;49.838;8.650;2022-09-21T10:00:28;3.20;;;1.38;;
43118;SDS011;28729;49.838;8.650;2022-09-21T10:04:30;4.47;;;1.45;;
43118;SDS011;28729;49.838;8.650;2022-09-21T10:08:44;3.28;;;1.48;;
43118;SDS011;28729;49.838;8.650;2022-09-21T10:12:49;2.67;;;1.42;;
43118;SDS011;28729;49.838;8.650;2022-09-21T10:16:52;2.10;;;1.42;;
43118;SDS011;28729;49.838;8.650;2022-09-21T10:20:57;4.57;;;1.60;;
43118;SDS011;28729;49.838;8.650;2022-09-21T10:25:03;5.53;;;1.50;;
43118;SDS011;28729;49.838;8.650;2022-09-21T10:29:17;3.60;;;1.73;;
43118;SDS011;28729;49.838;8.650;2022-09-21T10:33:19;6.95;;;1.40;;
43118;SDS011;28729;49.838;8.650;2022-09-21T10:37:26;2.55;;;1.30;;
43118;SDS011;28729;49.838;8.650;2022-09-21T10:41:35;2.45;;;1.13;;
43118;SDS011;28729;49.838;8.650;2022-09-21T10:49:53;3.40;;;1.58;;
43118;SDS011;28729;49.838;8.650;2022-09-21T10:53:57;2.80;;;1.52;;
43118;SDS011;28729;49.838;8.650;2022-09-21T10:57:59;3.88;;;2.00;;
43118;SDS011;28729;49.838;8.650;2022-09-21T11:02:02;4.43;;;2.03;;
43118;SDS011;28729;49.838;8.650;2022-09-21T11:06:26;2.22;;;1.10;;
43118;SDS011;28729;49.838;8.650;2022-09-21T11:10:37;1.77;;;0.82;;
43118;SDS011;28729;49.838;8.650;2022-09-21T11:19:17;3.13;;;1.08;;
43118;SDS011;28729;49.838;8.650;2022-09-21T11:23:43;1.77;;;0.80;;
43118;SDS011;28729;49.838;8.650;2022-09-21T11:27:56;2.78;;;1.00;;
43118;SDS011;28729;49.838;8.650;2022-09-21T11:36:19;1.60;;;1.00;;
43118;SDS011;28729;49.838;8.650;2022-09-21T11:44:56;2.55;;;1.40;;
43118;SDS011;28729;49.838;8.650;2022-09-21T11:53:47;1.95;;;1.20;;
43118;SDS011;28729;49.838;8.650;2022-09-21T11:58:09;2.42;;;0.93;;
43118;SDS011;28729;49.838;8.650;2022-09-21T12:19:25;1.95;;;1.08;;
43118;SDS011;28729;49.838;8.650;2022-09-21T12:23:49;2.35;;;0.82;;
43118;SDS011;28729;49.838;8.650;2022-09-21T12:37:03;2.72;;;0.80;;
43118;SDS011;28729;49.838;8.650;2022-09-21T12:41:16;2.20;;;1.10;;
43118;SDS011;28729;49.838;8.650;2022-09-21T12:49:58;2.13;;;1.05;;
43118;SDS011;28729;49.838;8.650;2022-09-21T12:54:08;0.85;;;0.70;;
43118;SDS011;28729;49.838;8.650;2022-09-21T12:58:25;0.88;;;0.80;;
43118;SDS011;28729;49.838;8.650;2022-09-21T13:02:33;2.97;;;0.90;;
43118;SDS011;28729;49.838;8.650;2022-09-21T13:06:49;2.27;;;1.00;;
43118;SDS011;28729;49.838;8.650;2022-09-21T13:10:57;1.50;;;0.80;;
43118;SDS011;28729;49.838;8.650;2022-09-21T13:15:03;1.50;;;0.90;;
43118;SDS011;28729;49.838;8.650;2022-09-21T13:19:24;1.48;;;0.95;;
43118;SDS011;28729;49.838;8.650;2022-09-21T13:23:30;2.45;;;1.00;;
43118;SDS011;28729;49.838;8.650;2022-09-21T13:36:29;1.13;;;0.80;;
43118;SDS011;28729;49.838;8.650;2022-09-21T13:40:35;2.17;;;0.98;;
43118;SDS011;28729;49.838;8.650;2022-09-21T13:44:41;1.83;;;0.90;;
43118;SDS011;28729;49.838;8.650;2022-09-21T13:48:44;2.75;;;0.85;;
43118;SDS011;28729;49.838;8.650;2022-09-21T13:53:03;1.70;;;0.85;;
43118;SDS011;28729;49.838;8.650;2022-09-21T13:57:20;3.50;;;1.02;;
43118;SDS011;28729;49.838;8.650;2022-09-21T14:01:30;1.20;;;0.80;;
43118;SDS011;28729;49.838;8.650;2022-09-21T14:05:50;1.95;;;1.25;;
43118;SDS011;28729;49.838;8.650;2022-09-21T14:09:56;2.30;;;1.20;;
43118;SDS011;28729;49.838;8.650;2022-09-21T14:26:31;1.35;;;0.70;;
43118;SDS011;28729;49.838;8.650;2022-09-21T14:30:35;1.85;;;0.80;;
43118;SDS011;28729;49.838;8.650;2022-09-21T14:34:38;3.53;;;0.95;;
43118;SDS011;28729;49.838;8.650;2022-09-21T14:38:46;0.93;;;0.68;;
43118;SDS011;28729;49.838;8.650;2022-09-21T14:42:56;2.55;;;0.60;;
43118;SDS011;28729;49.838;8.650;2022-09-21T15:04:31;1.15;;;0.60;;
43118;SDS011;28729;49.838;8.650;2022-09-21T15:17:55;1.33;;;0.82;;
43118;SDS011;28729;49.838;8.650;2022-09-21T15:22:17;2.15;;;0.98;;
43118;SDS011;28729;49.838;8.650;2022-09-21T15:26:22;1.33;;;0.93;;
43118;SDS011;28729;49.838;8.650;2022-09-21T15:30:30;1.35;;;0.68;;
43118;SDS011;28729;49.838;8.650;2022-09-21T15:34:33;1.25;;;0.80;;
43118;SDS011;28729;49.838;8.650;2022-09-21T15:38:35;0.82;;;0.70;;
43118;SDS011;28729;49.838;8.650;2022-09-21T15:42:40;1.15;;;0.70;;
43118;SDS011;28729;49.838;8.650;2022-09-21T15:47:01;2.05;;;1.05;;
43118;SDS011;28729;49.838;8.650;2022-09-21T15:51:09;1.70;;;0.73;;
43118;SDS011;28729;49.838;8.650;2022-09-21T15:55:18;1.50;;;0.70;;
43118;SDS011;28729;49.838;8.650;2022-09-21T15:59:21;2.72;;;0.75;;
43118;SDS011;28729;49.838;8.650;2022-09-21T16:03:24;1.37;;;1.10;;
43118;SDS011;28729;49.838;8.650;2022-09-21T16:07:33;1.33;;;0.80;;
43118;SDS011;28729;49.838;8.650;2022-09-21T16:11:36;1.55;;;0.70;;
43118;SDS011;28729;49.838;8.650;2022-09-21T16:15:39;0.82;;;0.65;;
43118;SDS011;28729;49.838;8.650;2022-09-21T16:20:02;0.68;;;0.43;;
43118;SDS011;28729;49.838;8.650;2022-09-21T16:24:20;1.83;;;0.60;;
43118;SDS011;28729;49.838;8.650;2022-09-21T16:32:39;2.00;;;0.73;;
43118;SDS011;28729;49.838;8.650;2022-09-21T16:36:42;0.63;;;0.60;;
43118;SDS011;28729;49.838;8.650;2022-09-21T16:40:45;1.73;;;0.70;;
43118;SDS011;28729;49.838;8.650;2022-09-21T16:44:47;3.35;;;0.80;;
43118;SDS011;28729;49.838;8.650;2022-09-21T16:48:49;2.55;;;0.90;;
43118;SDS011;28729;49.838;8.650;2022-09-21T16:52:50;4.18;;;0.90;;
43118;SDS011;28729;49.838;8.650;2022-09-21T16:56:54;1.85;;;0.70;;
43118;SDS011;28729;49.838;8.650;2022-09-21T17:00:57;2.28;;;0.80;;
43118;SDS011;28729;49.838;8.650;2022-09-21T17:05:01;1.70;;;0.80;;
43118;SDS011;28729;49.838;8.650;2022-09-21T17:09:07;2.17;;;0.80;;
43118;SDS011;28729;49.838;8.650;2022-09-21T17:13:21;2.58;;;1.20;;
43118;SDS011;28729;49.838;8.650;2022-09-21T17:17:23;3.17;;;0.90;;
43118;SDS011;28729;49.838;8.650;2022-09-21T17:21:25;4.20;;;0.90;;
43118;SDS011;28729;49.838;8.650;2022-09-21T17:25:28;2.40;;;0.93;;
43118;SDS011;28729;49.838;8.650;2022-09-21T17:29:30;3.13;;;1.02;;
43118;SDS011;28729;49.838;8.650;2022-09-21T17:33:32;2.10;;;0.98;;
43118;SDS011;28729;49.838;8.650;2022-09-21T17:37:34;2.00;;;0.98;;
43118;SDS011;28729;49.838;8.650;2022-09-21T17:54:16;1.70;;;0.98;;
43118;SDS011;28729;49.838;8.650;2022-09-21T17:59:03;4.88;;;0.90;;
43118;SDS011;28729;49.838;8.650;2022-09-21T18:02:46;4.05;;;0.98;;
43118;SDS011;28729;49.838;8.650;2022-09-21T18:10:54;2.88;;;0.80;;
43118;SDS011;28729;49.838;8.650;2022-09-21T18:15:29;1.50;;;1.00;;
43118;SDS011;28729;49.838;8.650;2022-09-21T18:24:10;2.33;;;1.15;;
43118;SDS011;28729;49.838;8.650;2022-09-21T18:28:25;3.60;;;0.80;;
43118;SDS011;28729;49.838;8.650;2022-09-21T18:36:39;2.42;;;0.80;;
43118;SDS011;28729;49.838;8.650;2022-09-21T18:41:09;3.50;;;0.88;;
43118;SDS011;28729;49.838;8.650;2022-09-21T18:54:03;3.22;;;0.88;;
43118;SDS011;28729;49.838;8.650;2022-09-21T18:58:05;5.30;;;1.00;;
43118;SDS011;28729;49.838;8.650;2022-09-21T19:02:09;3.53;;;1.58;;
43118;SDS011;28729;49.838;8.650;2022-09-21T19:11:07;6.05;;;1.38;;
43118;SDS011;28729;49.838;8.650;2022-09-21T19:15:24;2.53;;;1.20;;
43118;SDS011;28729;49.838;8.650;2022-09-21T19:32:50;5.35;;;0.93;;
43118;SDS011;28729;49.838;8.650;2022-09-21T19:37:00;3.83;;;1.33;;
43118;SDS011;28729;49.838;8.650;2022-09-21T19:50:10;2.47;;;0.90;;
43118;SDS011;28729;49.838;8.650;2022-09-21T19:54:22;2.55;;;0.88;;
43118;SDS011;28729;49.838;8.650;2022-09-21T19:58:44;5.80;;;1.03;;
43118;SDS011;28729;49.838;8.650;2022-09-21T20:03:11;3.50;;;1.63;;
43118;SDS011;28729;49.838;8.650;2022-09-21T20:11:32;5.45;;;1.20;;
43118;SDS011;28729;49.838;8.650;2022-09-21T20:20:23;3.47;;;1.27;;
43118;SDS011;28729;49.838;8.650;2022-09-21T20:24:27;2.33;;;1.00;;
43118;SDS011;28729;49.838;8.650;2022-09-21T20:28:33;2.83;;;1.27;;
43118;SDS011;28729;49.838;8.650;2022-09-21T20:32:36;2.23;;;1.10;;
43118;SDS011;28729;49.838;8.650;2022-09-21T20:36:41;2.85;;;1.05;;
43118;SDS011;28729;49.838;8.650;2022-09-21T20:40:42;3.45;;;1.20;;
43118;SDS011;28729;49.838;8.650;2022-09-21T20:44:45;3.55;;;1.30;;
43118;SDS011;28729;49.838;8.650;2022-09-21T20:48:46;3.60;;;1.10;;
43118;SDS011;28729;49.838;8.650;2022-09-21T20:52:48;1.42;;;1.00;;
43118;SDS011;28729;49.838;8.650;2022-09-21T20:56:50;3.28;;;1.23;;
43118;SDS011;28729;49.838;8.650;2022-09-21T21:00:51;2.65;;;1.10;;
43118;SDS011;28729;49.838;8.650;2022-09-21T21:04:59;5.88;;;1.25;;
43118;SDS011;28729;49.838;8.650;2022-09-21T21:09:01;7.73;;;3.00;;
43118;SDS011;28729;49.838;8.650;2022-09-21T21:13:03;3.10;;;1.25;;
43118;SDS011;28729;49.838;8.650;2022-09-21T21:17:05;1.20;;;0.98;;
43118;SDS011;28729;49.838;8.650;2022-09-21T21:21:07;3.53;;;1.10;;
43118;SDS011;28729;49.838;8.650;2022-09-21T21:25:09;1.85;;;1.15;;
43118;SDS011;28729;49.838;8.650;2022-09-21T21:29:11;4.68;;;1.20;;
43118;SDS011;28729;49.838;8.650;2022-09-21T21:33:12;3.38;;;1.00;;
43118;SDS011;28729;49.838;8.650;2022-09-21T21:37:14;5.00;;;1.48;;
43118;SDS011;28729;49.838;8.650;2022-09-21T21:41:16;3.30;;;1.25;;
43118;SDS011;28729;49.838;8.650;2022-09-21T21:45:18;2.85;;;1.10;;
43118;SDS011;28729;49.838;8.650;2022-09-21T21:49:22;2.47;;;1.23;;
43118;SDS011;28729;49.838;8.650;2022-09-21T21:53:24;3.63;;;1.15;;
43118;SDS011;28729;49.838;8.650;2022-09-21T21:57:27;2.03;;;1.08;;
43118;SDS011;28729;49.838;8.650;2022-09-21T22:01:29;4.68;;;1.10;;
43118;SDS011;28729;49.838;8.650;2022-09-21T22:05:32;1.77;;;1.10;;
43118;SDS011;28729;49.838;8.650;2022-09-21T22:09:34;4.68;;;1.25;;
43118;SDS011;28729;49.838;8.650;2022-09-21T22:13:36;5.03;;;1.50;;
43118;SDS011;28729;49.838;8.650;2022-09-21T22:17:39;3.38;;;1.10;;
43118;SDS011;28729;49.838;8.650;2022-09-21T22:21:42;2.20;;;1.10;;
43118;SDS011;28729;49.838;8.650;2022-09-21T22:26:01;1.65;;;1.13;;
43118;SDS011;28729;49.838;8.650;2022-09-21T22:30:04;5.10;;;1.20;;
43118;SDS011;28729;49.838;8.650;2022-09-21T22:34:06;2.43;;;1.33;;
43118;SDS011;28729;49.838;8.650;2022-09-21T22:38:09;4.38;;;1.33;;
43118;SDS011;28729;49.838;8.650;2022-09-21T22:42:12;4.18;;;1.30;;
43118;SDS011;28729;49.838;8.650;2022-09-21T22:46:14;5.37;;;2.37;;
43118;SDS011;28729;49.838;8.650;2022-09-21T22:50:19;3.75;;;1.92;;
43118;SDS011;28729;49.838;8.650;2022-09-21T22:54:20;3.42;;;1.48;;
43118;SDS011;28729;49.838;8.650;2022-09-21T22:58:22;2.55;;;1.35;;
43118;SDS011;28729;49.838;8.650;2022-09-21T23:02:23;3.10;;;1.20;;
43118;SDS011;28729;49.838;8.650;2022-09-21T23:06:26;3.65;;;1.10;;
43118;SDS011;28729;49.838;8.650;2022-09-21T23:10:29;3.28;;;1.20;;
43118;SDS011;28729;49.838;8.650;2022-09-21T23:14:31;3.13;;;1.15;;
43118;SDS011;28729;49.838;8.650;2022-09-21T23:18:33;3.20;;;1.08;;
43118;SDS011;28729;49.838;8.650;2022-09-21T23:22:35;2.37;;;1.27;;
43118;SDS011;28729;49.838;8.650;2022-09-21T23:26:37;2.05;;;1.30;;
43118;SDS011;28729;49.838;8.650;2022-09-21T23:30:38;2.13;;;1.02;;
43118;SDS011;28729;49.838;8.650;2022-09-21T23:34:40;1.35;;;0.82;;
43118;SDS011;28729;49.838;8.650;2022-09-21T23:38:42;6.32;;;1.40;;
43118;SDS011;28729;49.838;8.650;2022-09-21T23:42:44;4.40;;;1.25;;
43118;SDS011;28729;49.838;8.650;2022-09-21T23:46:45;3.75;;;1.23;;
43118;SDS011;28729;49.838;8.650;2022-09-21T23:50:47;7.53;;;1.20;;
43118;SDS011;28729;49.838;8.650;2022-09-21T23:54:48;3.97;;;1.10;;
43118;SDS011;28729;49.838;8.650;2022-09-21T23:58:53;3.60;;;1.10;;
